createdAt,value
2022-10-22T00:03:17.054Z,11.70
2022-10-22T00:08:22.579Z,11.20
2022-10-22T00:13:24.562Z,10.88
2022-10-22T00:18:26.347Z,11.38
2022-10-22T00:23:29.447Z,11.05
2022-10-22T00:28:31.232Z,11.65
2022-10-22T00:33:33.569Z,11.88
2022-10-22T00:38:36.584Z,11.15
2022-10-22T00:43:54.008Z,11.73
2022-10-22T00:49:02.361Z,11.07
2022-10-22T00:54:07.866Z,11.05
2022-10-22T00:59:10.295Z,11.82
2022-10-22T01:04:12.009Z,11.65
2022-10-22T01:09:21.958Z,10.43
2022-10-22T01:14:29.205Z,11.50
2022-10-22T01:19:55.046Z,11.70
2022-10-22T01:25:03.243Z,10.10
2022-10-22T01:35:27.799Z,10.43
2022-10-22T01:40:30.262Z,11.12
2022-10-22T01:45:36.137Z,10.38
2022-10-22T01:50:55.916Z,10.52
2022-10-22T01:56:10.585Z,9.63
2022-10-22T02:01:19.202Z,9.13
2022-10-22T02:06:24.808Z,9.35
2022-10-22T02:11:27.252Z,9.95
2022-10-22T02:16:34.506Z,10.20
2022-10-22T02:21:37.919Z,9.30
2022-10-22T02:26:44.705Z,9.35
2022-10-22T02:31:48.505Z,9.20
2022-10-22T02:36:52.185Z,8.75
2022-10-22T02:41:53.966Z,9.05
2022-10-22T02:46:55.896Z,9.60
2022-10-22T02:51:58.921Z,9.00
2022-10-22T02:57:00.600Z,10.02
2022-10-22T03:02:02.316Z,9.07
2022-10-22T03:07:05.385Z,9.50
2022-10-22T03:12:07.427Z,9.52
2022-10-22T03:17:09.262Z,9.85
2022-10-22T03:22:16.657Z,9.77
2022-10-22T03:27:21.521Z,9.25
2022-10-22T03:32:23.188Z,8.85
2022-10-22T03:37:27.134Z,10.40
2022-10-22T03:47:43.831Z,9.27
2022-10-22T03:52:47.157Z,9.23
2022-10-22T03:57:58.006Z,9.65
2022-10-22T04:09:15.700Z,10.55
2022-10-22T04:14:18.852Z,10.90
2022-10-22T04:19:20.568Z,10.05
2022-10-22T04:24:22.361Z,9.48
2022-10-22T04:29:25.703Z,9.80
2022-10-22T04:34:28.140Z,9.77
2022-10-22T05:44:18.239Z,9.95
2022-10-22T06:42:22.109Z,8.93
2022-10-22T10:41:07.140Z,8.30
2022-10-22T10:51:33.944Z,7.95
2022-10-22T10:56:40.980Z,7.55
2022-10-22T11:01:56.135Z,7.93
2022-10-22T11:23:41.399Z,7.80
2022-10-22T11:29:19.804Z,17.48
2022-10-22T12:48:51.086Z,8.18
2022-10-22T12:54:10.977Z,7.28
2022-10-22T12:59:20.625Z,8.48
2022-10-22T13:20:56.209Z,7.40
2022-10-22T13:26:04.447Z,8.80
2022-10-22T13:31:16.540Z,8.48
2022-10-22T13:36:21.827Z,6.70
2022-10-22T13:41:28.461Z,8.40
2022-10-22T13:51:48.478Z,8.05
2022-10-22T13:56:55.483Z,8.82
2022-10-22T14:01:57.438Z,8.23
2022-10-22T14:07:03.705Z,7.60
2022-10-22T15:10:34.522Z,8.73
2022-10-22T15:26:41.510Z,7.60
2022-10-22T15:32:13.863Z,7.22
2022-10-22T16:00:04.786Z,8.38
2022-10-22T16:38:07.437Z,9.90
2022-10-22T16:43:09.102Z,10.10
2022-10-22T16:48:25.106Z,9.88
2022-10-22T16:53:28.272Z,10.18
2022-10-22T16:58:30.044Z,10.10
2022-10-22T17:03:31.732Z,10.80
2022-10-22T17:08:37.207Z,10.50
2022-10-22T17:13:40.875Z,10.30
2022-10-22T17:29:43.675Z,9.68
2022-10-22T17:34:45.450Z,9.32
2022-10-22T17:39:50.249Z,10.05
2022-10-22T17:44:53.709Z,12.40
2022-10-22T17:50:01.512Z,12.00
2022-10-22T17:55:03.835Z,10.70
2022-10-22T18:00:16.013Z,11.68
2022-10-22T18:11:13.075Z,10.68
2022-10-22T18:16:16.584Z,12.20
2022-10-22T18:21:19.256Z,12.13
2022-10-22T18:26:28.342Z,14.32
2022-10-22T18:31:31.422Z,14.57
2022-10-22T18:36:33.228Z,13.13
2022-10-22T18:41:35.096Z,11.80
2022-10-22T18:46:38.285Z,11.77
2022-10-22T18:51:40.173Z,13.98
2022-10-22T18:56:42.043Z,13.62
2022-10-22T19:01:45.228Z,13.30
2022-10-22T19:06:47.364Z,12.70
2022-10-22T19:11:49.225Z,12.93
2022-10-22T19:16:52.608Z,11.43
2022-10-22T19:21:57.166Z,12.82
2022-10-22T19:26:58.915Z,11.50
2022-10-22T19:32:02.228Z,12.55
2022-10-22T19:37:04.060Z,12.02
2022-10-22T19:42:05.924Z,11.43
2022-10-22T19:47:09.052Z,10.95
2022-10-22T19:52:11.231Z,13.23
2022-10-22T19:57:15.298Z,12.73
2022-10-22T20:02:19.015Z,11.65
2022-10-22T20:07:20.903Z,11.95
2022-10-22T20:12:22.696Z,12.13
2022-10-22T20:17:26.000Z,12.88
2022-10-22T20:22:27.771Z,12.00
2022-10-22T20:27:29.550Z,11.15
2022-10-22T20:32:33.186Z,11.60
2022-10-22T20:37:34.997Z,11.90
2022-10-22T20:42:36.767Z,12.30
2022-10-22T20:47:51.201Z,12.27
2022-10-22T20:52:53.772Z,11.73
2022-10-22T20:57:55.999Z,11.65
2022-10-22T21:02:59.286Z,11.02
2022-10-22T21:08:01.152Z,11.77
2022-10-22T21:13:02.947Z,14.40
2022-10-22T21:18:06.301Z,12.60
2022-10-22T21:23:08.491Z,12.00
2022-10-22T21:28:10.730Z,12.98
2022-10-22T21:33:13.981Z,14.07
2022-10-22T21:38:15.751Z,14.10
2022-10-22T21:43:18.066Z,14.05
2022-10-22T21:48:21.167Z,11.80
2022-10-22T21:53:22.968Z,11.75
2022-10-22T21:58:24.716Z,12.77
2022-10-22T22:03:30.584Z,12.35
2022-10-22T22:08:33.063Z,13.65
2022-10-22T22:13:35.218Z,12.43
2022-10-22T22:18:39.567Z,13.88
2022-10-22T22:23:44.764Z,12.32
2022-10-22T22:33:49.634Z,12.23
